createdAt,value
2022-12-09T00:01:56.286Z,99684.47
2022-12-09T00:04:26.380Z,99694.13
2022-12-09T00:06:57.420Z,99700.38
2022-12-09T00:09:27.401Z,99693.91
2022-12-09T00:11:57.529Z,99690.53
2022-12-09T00:14:27.568Z,99690.75
2022-12-09T00:16:57.838Z,99690.31
2022-12-09T00:19:27.645Z,99700.25
2022-12-09T00:21:58.558Z,99691.13
2022-12-09T00:24:28.142Z,99697.53
2022-12-09T00:26:58.206Z,99699.44
2022-12-09T00:29:28.017Z,99699.22
2022-12-09T00:31:58.025Z,99701.97
2022-12-09T00:34:27.995Z,99703.78
2022-12-09T00:36:59.087Z,99709.09
2022-12-09T00:39:28.899Z,99701.75
2022-12-09T00:41:58.615Z,99718.94
2022-12-09T00:44:28.498Z,99724.91
2022-12-09T00:46:58.375Z,99723.31
2022-12-09T00:49:28.432Z,99722.78
2022-12-09T00:51:59.894Z,99722.03
2022-12-09T00:54:29.631Z,99713.63
2022-12-09T00:56:59.657Z,99715.13
2022-12-09T00:59:29.306Z,99705.63
2022-12-09T01:01:59.018Z,99706.88
2022-12-09T01:04:29.035Z,99709.59
2022-12-09T01:07:00.467Z,99716.72
2022-12-09T01:09:30.326Z,99711.09
2022-12-09T01:12:00.461Z,99704.41
2022-12-09T01:14:30.548Z,99702.63
2022-12-09T01:17:00.758Z,99703.69
2022-12-09T01:19:30.393Z,99703.78
2022-12-09T01:22:02.036Z,99707.06
2022-12-09T01:24:31.529Z,99714.19
2022-12-09T01:27:01.298Z,99709.84
2022-12-09T01:29:30.987Z,99708.16
2022-12-09T01:32:00.954Z,99723.84
2022-12-09T01:34:30.838Z,99714.06
2022-12-09T01:37:03.082Z,99718.31
2022-12-09T01:39:32.634Z,99713.63
2022-12-09T01:42:02.559Z,99721.09
2022-12-09T01:44:32.754Z,99718.09
2022-12-09T01:47:03.207Z,99718.22
2022-12-09T01:49:33.663Z,99713.34
2022-12-09T01:52:11.661Z,99720.97
2022-12-09T01:54:43.068Z,99716.84
2022-12-09T01:57:12.653Z,99724.06
2022-12-09T01:59:42.991Z,99719.81
2022-12-09T02:02:16.564Z,99719.59
2022-12-09T02:04:47.976Z,99719.38
2022-12-09T02:07:20.553Z,99717.28
2022-12-09T02:09:53.533Z,99715.78
2022-12-09T02:12:30.773Z,99710.38
2022-12-09T02:15:04.658Z,99714.72
2022-12-09T02:17:40.922Z,99719.59
2022-12-09T02:20:15.132Z,99709.94
2022-12-09T02:22:48.251Z,99713.56
2022-12-09T02:25:26.670Z,99719.81
2022-12-09T02:28:09.098Z,99719.81
2022-12-09T02:30:42.736Z,99720.88
2022-12-09T02:33:35.258Z,99720.78
2022-12-09T02:36:09.292Z,99719.81
2022-12-09T02:38:40.981Z,99714.72
2022-12-09T02:41:13.884Z,99704.84
2022-12-09T02:43:49.831Z,99703.47
2022-12-09T02:46:20.887Z,99702.53
2022-12-09T02:48:53.522Z,99697.13
2022-12-09T02:51:25.760Z,99695.19
2022-12-09T02:53:58.484Z,99704.13
2022-12-09T02:56:28.862Z,99708.06
2022-12-09T02:58:58.563Z,99699.88
2022-12-09T03:01:33.150Z,99708.38
2022-12-09T03:04:03.988Z,99711.66
2022-12-09T03:06:37.367Z,99711.53
2022-12-09T03:09:09.629Z,99715.34
2022-12-09T03:11:41.438Z,99714.31
2022-12-09T03:14:14.064Z,99702.00
2022-12-09T03:16:48.600Z,99703.28
2022-12-09T03:19:22.164Z,99690.31
2022-12-09T03:21:55.246Z,99691.81
2022-12-09T03:24:28.901Z,99692.56
2022-12-09T03:27:00.463Z,99691.81
2022-12-09T03:29:31.683Z,99692.75
2022-12-09T03:32:01.272Z,99702.09
2022-12-09T03:34:32.295Z,99713.47
2022-12-09T03:37:03.383Z,99734.56
2022-12-09T03:39:35.684Z,99730.31
2022-12-09T03:42:08.585Z,99728.19
2022-12-09T03:44:40.869Z,99717.28
2022-12-09T03:47:11.341Z,99721.31
2022-12-09T03:49:41.393Z,99729.78
2022-12-09T03:52:15.569Z,99724.19
2022-12-09T03:54:46.007Z,99728.50
2022-12-09T03:57:19.045Z,99731.09
2022-12-09T03:59:52.837Z,99739.34
2022-12-09T04:02:23.049Z,99744.63
2022-12-09T04:04:53.195Z,99741.25
2022-12-09T04:07:24.358Z,99736.06
2022-12-09T04:09:54.147Z,99736.78
2022-12-09T04:12:24.453Z,99747.41
2022-12-09T04:14:54.435Z,99746.56
2022-12-09T04:17:24.827Z,99743.34
2022-12-09T04:19:54.488Z,99746.66
2022-12-09T04:22:25.711Z,99748.44
2022-12-09T04:24:55.443Z,99743.25
2022-12-09T04:27:25.309Z,99737.75
2022-12-09T04:29:55.257Z,99740.59
2022-12-09T04:32:25.286Z,99737.44
2022-12-09T04:34:54.957Z,99735.72
2022-12-09T04:37:26.098Z,99731.91
2022-12-09T04:39:55.624Z,99729.16
2022-12-09T04:42:25.469Z,99724.28
2022-12-09T04:44:55.365Z,99715.69
2022-12-09T04:47:25.300Z,99712.91
2022-12-09T04:49:55.168Z,99714.63
2022-12-09T04:52:26.423Z,99714.50
2022-12-09T04:54:57.249Z,99702.41
2022-12-09T04:57:27.205Z,99706.66
2022-12-09T04:59:56.922Z,99705.50
2022-12-09T05:02:26.778Z,99709.75
2022-12-09T05:04:56.840Z,99712.19
2022-12-09T05:07:28.229Z,99717.16
2022-12-09T05:09:59.175Z,99730.63
2022-12-09T05:12:30.218Z,99734.13
2022-12-09T05:15:00.829Z,99734.88
2022-12-09T05:17:31.236Z,99734.88
2022-12-09T05:20:01.507Z,99728.72
2022-12-09T05:22:33.057Z,99729.59
2022-12-09T05:25:02.951Z,99731.47
2022-12-09T05:27:32.892Z,99737.66
2022-12-09T05:30:02.675Z,99737.75
2022-12-09T05:32:32.878Z,99742.94
2022-12-09T05:35:02.643Z,99735.28
2022-12-09T05:37:35.650Z,99735.84
2022-12-09T05:40:06.456Z,99738.28
2022-12-09T05:42:41.368Z,99750.16
2022-12-09T05:45:13.174Z,99752.28
2022-12-09T05:47:43.341Z,99747.81
2022-12-09T05:50:15.015Z,99746.53
2022-12-09T05:52:46.634Z,99740.63
2022-12-09T05:55:16.882Z,99736.16
2022-12-09T05:57:46.505Z,99740.94
2022-12-09T06:00:16.581Z,99747.19
2022-12-09T06:02:46.359Z,99760.44
2022-12-09T06:05:16.483Z,99745.50
2022-12-09T06:07:48.996Z,99762.25
2022-12-09T06:10:19.034Z,99758.09
2022-12-09T06:12:49.637Z,99766.50
2022-12-09T06:15:21.809Z,99763.94
2022-12-09T06:17:53.731Z,99762.25
2022-12-09T06:20:23.503Z,99766.16
2022-12-09T06:22:54.687Z,99764.25
2022-12-09T06:25:24.766Z,99768.69
2022-12-09T06:27:55.121Z,99772.59
2022-12-09T06:30:25.310Z,99768.69
2022-12-09T06:32:55.642Z,99768.47
2022-12-09T06:35:26.095Z,99762.56
2022-12-09T06:37:57.552Z,99759.06
2022-12-09T06:40:27.278Z,99765.22
2022-12-09T06:42:57.108Z,99768.81
2022-12-09T06:45:27.011Z,99762.56
2022-12-09T06:47:56.745Z,99768.94
2022-12-09T06:50:27.285Z,99759.72
2022-12-09T06:52:58.572Z,99768.28
2022-12-09T06:55:28.621Z,99772.44
2022-12-09T06:57:59.202Z,99773.50
2022-12-09T07:00:29.200Z,99775.19
2022-12-09T07:02:59.436Z,99764.25
2022-12-09T07:05:29.789Z,99768.19
2022-12-09T07:08:01.348Z,99769.69
2022-12-09T07:10:31.714Z,99772.22
2022-12-09T07:13:02.950Z,99777.41
2022-12-09T07:15:33.389Z,99781.34
2022-12-09T07:18:03.633Z,99775.53
2022-12-09T07:20:33.906Z,99775.75
2022-12-09T07:23:05.302Z,99779.78
2022-12-09T07:25:35.830Z,99789.00
2022-12-09T07:28:06.117Z,99798.97
2022-12-09T07:30:37.992Z,99801.31
2022-12-09T07:33:07.857Z,99799.41
2022-12-09T07:35:37.857Z,99789.41
2022-12-09T07:38:09.196Z,99794.41
2022-12-09T07:40:40.614Z,99784.22
2022-12-09T07:43:10.599Z,99776.16
2022-12-09T07:45:40.980Z,99791.13
2022-12-09T07:48:11.075Z,99788.97
2022-12-09T07:50:40.769Z,99780.78
2022-12-09T07:53:11.847Z,99787.28
2022-12-09T07:55:41.466Z,99795.78
2022-12-09T07:58:11.815Z,99789.97
2022-12-09T08:00:41.746Z,99790.78
2022-12-09T08:03:13.208Z,99778.81
2022-12-09T08:05:47.814Z,99785.38
2022-12-09T08:08:19.193Z,99782.00
2022-12-09T08:10:50.142Z,99787.91
2022-12-09T08:13:21.140Z,99782.50
2022-12-09T08:15:51.703Z,99789.31
2022-12-09T08:18:21.467Z,99783.66
2022-12-09T08:20:51.546Z,99779.63
2022-12-09T08:23:22.835Z,99780.78
2022-12-09T08:25:54.326Z,99790.34
2022-12-09T08:28:24.659Z,99785.25
2022-12-09T08:30:54.863Z,99791.13
2022-12-09T08:33:25.343Z,99797.16
2022-12-09T08:35:55.364Z,99795.78
2022-12-09T08:38:26.981Z,99785.16
2022-12-09T08:40:57.199Z,99790.25
2022-12-09T08:43:27.111Z,99796.94
2022-12-09T08:46:01.198Z,99800.47
2022-12-09T08:48:31.371Z,99796.09
2022-12-09T08:51:01.272Z,99799.06
2022-12-09T08:53:32.550Z,99787.69
2022-12-09T08:56:08.871Z,99786.19
2022-12-09T08:58:38.877Z,99782.38
2022-12-09T09:01:09.144Z,99771.75
2022-12-09T09:03:40.054Z,99764.94
2022-12-09T09:06:11.196Z,99776.63
2022-12-09T09:08:42.752Z,99762.63
2022-12-09T09:11:14.357Z,99754.63
2022-12-09T09:13:46.084Z,99750.03
2022-12-09T09:16:17.805Z,99745.19
2022-12-09T09:18:48.345Z,99740.94
2022-12-09T09:21:19.786Z,99738.81
2022-12-09T09:23:51.257Z,99737.09
2022-12-09T09:26:22.827Z,99736.25
2022-12-09T09:28:53.149Z,99729.03
2022-12-09T09:31:24.055Z,99738.13
2022-12-09T09:33:54.247Z,99731.34
2022-12-09T09:36:25.930Z,99729.84
2022-12-09T09:38:58.204Z,99729.03
2022-12-09T09:41:39.393Z,99719.34
2022-12-09T09:44:12.825Z,99727.63
2022-12-09T09:46:45.902Z,99737.16
2022-12-09T09:49:19.968Z,99724.47
2022-12-09T09:51:49.952Z,99714.56
2022-12-09T09:54:21.409Z,99721.34
2022-12-09T09:56:55.284Z,99721.13
2022-12-09T09:59:34.156Z,99715.41
2022-12-09T10:02:09.693Z,99706.91
2022-12-09T10:04:44.300Z,99692.13
2022-12-09T10:07:17.061Z,99687.44
2022-12-09T10:09:50.997Z,99678.75
2022-12-09T10:12:28.253Z,99684.66
2022-12-09T10:15:01.004Z,99678.81
2022-12-09T10:17:35.346Z,99672.56
2022-12-09T10:20:08.486Z,99667.41
2022-12-09T10:22:42.328Z,99665.22
2022-12-09T10:25:19.420Z,99675.63
2022-12-09T10:27:51.923Z,99674.09
2022-12-09T10:30:22.486Z,99661.94
2022-12-09T10:32:52.711Z,99658.38
2022-12-09T10:35:23.775Z,99659.72
2022-12-09T10:37:54.370Z,99645.19
2022-12-09T10:40:27.702Z,99645.00
2022-12-09T10:43:15.994Z,99635.91
2022-12-09T10:46:16.797Z,99630.72
2022-12-09T10:48:38.739Z,99633.22
2022-12-09T10:51:12.488Z,99635.66
2022-12-09T10:53:46.033Z,99631.91
2022-12-09T10:56:20.988Z,99633.34
2022-12-09T10:58:51.010Z,99628.28
2022-12-09T11:01:20.946Z,99609.09
2022-12-09T11:03:51.858Z,99604.63
2022-12-09T11:06:24.686Z,99607.41
2022-12-09T11:08:55.701Z,99611.16
2022-12-09T11:11:40.370Z,99603.22
2022-12-09T11:14:26.414Z,99589.66
2022-12-09T11:17:00.612Z,99587.00
2022-12-09T11:19:31.730Z,99583.97
2022-12-09T11:22:15.194Z,99578.28
2022-12-09T11:24:45.188Z,99578.56
2022-12-09T11:27:26.831Z,99573.72
2022-12-09T11:30:13.130Z,99563.34
2022-12-09T11:33:08.039Z,99565.25
2022-12-09T11:35:52.734Z,99558.75
2022-12-09T11:38:31.203Z,99559.44
2022-12-09T11:41:35.558Z,99550.38
2022-12-09T11:44:15.212Z,99540.84
2022-12-09T11:46:46.166Z,99549.78
2022-12-09T11:49:17.493Z,99552.97
2022-12-09T11:51:59.517Z,99559.44
2022-12-09T11:54:31.936Z,99563.06
2022-12-09T11:57:01.535Z,99561.19
2022-12-09T11:59:38.067Z,99553.78
2022-12-09T12:02:13.770Z,99556.91
2022-12-09T12:04:47.521Z,99562.25
2022-12-09T12:07:20.110Z,99562.38
2022-12-09T12:09:53.575Z,99562.38
2022-12-09T12:12:30.423Z,99545.56
2022-12-09T12:15:03.869Z,99539.25
2022-12-09T12:17:37.765Z,99533.63
2022-12-09T12:20:12.338Z,99529.97
2022-12-09T12:23:05.731Z,99525.84
2022-12-09T12:25:43.272Z,99514.16
2022-12-09T12:28:23.564Z,99509.31
2022-12-09T12:30:56.659Z,99493.69
2022-12-09T12:36:29.636Z,99503.59
2022-12-09T12:39:04.417Z,99515.91
2022-12-09T12:41:38.414Z,99524.88
2022-12-09T12:44:37.569Z,99523.44
2022-12-09T12:47:11.370Z,99519.81
2022-12-09T12:50:01.334Z,99519.09
2022-12-09T12:55:33.673Z,99514.84
2022-12-09T12:58:06.575Z,99528.06
2022-12-09T13:00:40.702Z,99512.81
2022-12-09T13:03:19.498Z,99519.31
2022-12-09T13:05:52.482Z,99520.28
2022-12-09T13:08:25.548Z,99520.28
2022-12-09T13:10:57.136Z,99520.88
2022-12-09T13:13:30.482Z,99512.28
2022-12-09T13:16:03.194Z,99514.69
2022-12-09T13:18:35.969Z,99507.59
2022-12-09T13:21:08.157Z,99503.81
2022-12-09T13:23:47.511Z,99496.56
2022-12-09T13:26:21.427Z,99498.00
2022-12-09T13:28:55.064Z,99503.81
2022-12-09T13:31:29.046Z,99507.91
2022-12-09T13:34:04.931Z,99501.63
2022-12-09T13:36:38.667Z,99505.00
2022-12-09T13:39:11.044Z,99498.72
2022-12-09T13:42:02.592Z,99499.81
2022-12-09T13:44:35.029Z,99500.66
2022-12-09T13:47:22.432Z,99505.00
2022-12-09T13:49:55.708Z,99496.06
2022-12-09T13:52:44.729Z,99494.22
2022-12-09T13:55:26.240Z,99495.09
2022-12-09T13:58:01.648Z,99501.50
2022-12-09T14:00:31.553Z,99492.94
2022-12-09T14:03:02.892Z,99491.50
2022-12-09T14:05:36.974Z,99494.41
2022-12-09T14:08:18.273Z,99508.66
2022-12-09T14:10:50.428Z,99513.16
2022-12-09T14:13:29.261Z,99507.09
2022-12-09T14:16:26.420Z,99508.31
2022-12-09T14:18:57.795Z,99507.59
2022-12-09T14:21:29.446Z,99509.66
2022-12-09T14:24:17.787Z,99506.28
2022-12-09T14:27:08.959Z,99501.94
2022-12-09T14:29:45.539Z,99483.31
2022-12-09T14:32:22.187Z,99480.91
2022-12-09T14:35:01.322Z,99486.22
2022-12-09T14:37:49.177Z,99488.88
2022-12-09T14:40:39.603Z,99499.50
2022-12-09T14:43:17.369Z,99491.53
2022-12-09T14:45:50.146Z,99494.19
2022-12-09T14:48:22.572Z,99498.56
2022-12-09T14:51:06.881Z,99498.81
2022-12-09T14:53:37.764Z,99500.47
2022-12-09T14:56:07.761Z,99501.34
2022-12-09T14:58:39.313Z,99492.50
2022-12-09T15:01:09.298Z,99493.63
2022-12-09T15:03:45.798Z,99495.16
2022-12-09T15:06:18.790Z,99491.53
2022-12-09T15:08:50.902Z,99492.50
2022-12-09T15:11:21.795Z,99491.66
2022-12-09T15:13:53.932Z,99488.16
2022-12-09T15:16:25.647Z,99482.72
2022-12-09T15:18:55.778Z,99481.84
2022-12-09T15:21:28.684Z,99477.53
2022-12-09T15:23:59.229Z,99481.03
2022-12-09T15:26:30.097Z,99475.00
2022-12-09T15:29:01.517Z,99472.47
2022-12-09T15:31:32.413Z,99476.91
2022-12-09T15:34:09.240Z,99464.69
2022-12-09T15:36:41.181Z,99467.47
2022-12-09T15:39:12.456Z,99473.91
2022-12-09T15:42:06.505Z,99469.53
2022-12-09T15:44:40.719Z,99467.84
2022-12-09T15:47:12.331Z,99467.84
2022-12-09T15:49:43.758Z,99463.38
2022-12-09T15:52:14.701Z,99461.81
2022-12-09T15:54:45.157Z,99456.25
2022-12-09T15:57:16.755Z,99458.22
2022-12-09T15:59:55.297Z,99466.31
2022-12-09T16:02:27.624Z,99463.78
2022-12-09T16:05:00.508Z,99466.44
2022-12-09T16:07:32.815Z,99471.00
2022-12-09T16:10:03.924Z,99468.22
2022-12-09T16:12:36.462Z,99464.72
2022-12-09T16:15:10.290Z,99468.34
2022-12-09T16:17:52.450Z,99462.19
2022-12-09T16:20:23.628Z,99467.88
2022-12-09T16:22:53.132Z,99464.25
2022-12-09T16:25:23.929Z,99449.88
2022-12-09T16:27:58.372Z,99452.53
2022-12-09T16:30:31.187Z,99448.41
2022-12-09T16:33:01.866Z,99452.53
2022-12-09T16:35:36.207Z,99442.00
2022-12-09T16:38:17.214Z,99432.34
2022-12-09T16:41:04.449Z,99431.13
2022-12-09T16:43:34.398Z,99433.09
2022-12-09T16:46:25.620Z,99431.88
2022-12-09T16:49:04.426Z,99427.53
2022-12-09T16:51:34.418Z,99423.41
2022-12-09T16:54:04.331Z,99420.41
2022-12-09T16:56:34.714Z,99422.47
2022-12-09T16:59:04.176Z,99426.81
2022-12-09T17:01:36.706Z,99424.28
2022-12-09T17:04:16.146Z,99424.66
2022-12-09T17:06:45.937Z,99422.13
2022-12-09T17:09:15.617Z,99429.97
2022-12-09T17:11:48.980Z,99424.16
2022-12-09T17:14:19.451Z,99425.59
2022-12-09T17:16:49.546Z,99422.13
2022-12-09T17:19:20.572Z,99419.56
2022-12-09T17:21:51.564Z,99425.59
2022-12-09T17:24:21.787Z,99430.06
2022-12-09T17:26:51.510Z,99429.47
2022-12-09T17:29:21.083Z,99424.75
2022-12-09T17:31:51.873Z,99417.88
2022-12-09T17:34:22.909Z,99425.94
2022-12-09T17:36:52.490Z,99412.91
2022-12-09T17:39:24.509Z,99410.38
2022-12-09T17:41:54.221Z,99410.13
2022-12-09T17:44:23.962Z,99409.31
2022-12-09T17:46:53.955Z,99393.97
2022-12-09T17:49:25.384Z,99391.06
2022-12-09T17:51:55.567Z,99396.16
2022-12-09T17:54:25.349Z,99379.88
2022-12-09T17:56:56.469Z,99384.06
2022-12-09T17:59:26.455Z,99381.66
2022-12-09T18:01:57.307Z,99369.03
2022-12-09T18:04:28.152Z,99369.44
2022-12-09T18:06:57.680Z,99374.00
2022-12-09T18:09:27.417Z,99369.81
2022-12-09T18:11:57.729Z,99365.59
2022-12-09T18:14:28.116Z,99356.69
2022-12-09T18:16:57.942Z,99354.84
2022-12-09T18:19:30.043Z,99355.41
2022-12-09T18:21:59.690Z,99344.25
2022-12-09T18:24:30.610Z,99337.47
2022-12-09T18:27:00.356Z,99332.81
2022-12-09T18:29:30.946Z,99328.31
2022-12-09T18:32:00.882Z,99328.53
2022-12-09T18:34:35.617Z,99323.88
2022-12-09T18:37:05.387Z,99320.09
2022-12-09T18:39:34.821Z,99322.34
2022-12-09T18:42:05.688Z,99322.78
2022-12-09T18:44:35.557Z,99315.94
2022-12-09T18:47:05.464Z,99323.94
2022-12-09T18:49:37.179Z,99320.84
2022-12-09T18:52:06.707Z,99325.88
2022-12-09T18:54:36.673Z,99328.25
2022-12-09T18:57:06.235Z,99333.19
2022-12-09T18:59:35.868Z,99323.38
2022-12-09T19:02:05.583Z,99330.09
2022-12-09T19:04:36.595Z,99333.31
2022-12-09T19:07:06.200Z,99325.91
2022-12-09T19:09:36.907Z,99325.31
2022-12-09T19:12:38.318Z,99318.00
2022-12-09T19:15:00.549Z,99306.91
2022-12-09T19:17:30.786Z,99327.69
2022-12-09T19:20:01.761Z,99325.31
2022-12-09T19:22:33.876Z,99332.91
2022-12-09T19:25:03.516Z,99339.06
2022-12-09T19:27:33.439Z,99334.00
2022-12-09T19:30:03.054Z,99344.41
2022-12-09T19:32:52.525Z,99350.03
2022-12-09T19:35:23.901Z,99344.69
2022-12-09T19:37:58.022Z,99343.72
2022-12-09T19:40:30.739Z,99349.34
2022-12-09T19:43:00.621Z,99356.63
2022-12-09T19:45:30.281Z,99355.66
2022-12-09T19:48:01.505Z,99348.22
2022-12-09T19:50:32.473Z,99353.25
2022-12-09T19:53:02.361Z,99351.09
2022-12-09T19:55:35.347Z,99351.66
2022-12-09T19:58:05.581Z,99350.78
2022-12-09T20:00:41.072Z,99354.94
2022-12-09T20:03:11.624Z,99360.22
2022-12-09T20:05:50.180Z,99359.63
2022-12-09T20:08:19.765Z,99369.13
2022-12-09T20:10:50.037Z,99360.94
2022-12-09T20:13:20.093Z,99356.16
2022-12-09T20:15:50.043Z,99362.00
2022-12-09T20:18:20.187Z,99361.81
2022-12-09T20:20:51.282Z,99364.53
2022-12-09T20:23:20.937Z,99368.78
2022-12-09T20:25:50.666Z,99369.16
2022-12-09T20:28:20.729Z,99362.91
2022-12-09T20:30:51.477Z,99373.94
2022-12-09T20:33:21.050Z,99363.75
2022-12-09T20:35:52.017Z,99366.19
2022-12-09T20:38:21.498Z,99364.25
2022-12-09T20:40:51.168Z,99356.78
2022-12-09T20:43:20.654Z,99364.03
2022-12-09T20:45:50.477Z,99356.59
2022-12-09T20:48:20.082Z,99348.28
2022-12-09T20:50:49.767Z,99348.75
2022-12-09T20:53:20.568Z,99351.66
2022-12-09T20:55:56.126Z,99352.88
2022-12-09T20:58:25.795Z,99352.88
2022-12-09T21:00:55.334Z,99342.16
2022-12-09T21:03:25.133Z,99336.72
2022-12-09T21:05:57.888Z,99343.50
2022-12-09T21:08:31.805Z,99329.28
2022-12-09T21:11:05.486Z,99320.66
2022-12-09T21:13:37.051Z,99316.00
2022-12-09T21:16:07.960Z,99312.44
2022-12-09T21:18:38.037Z,99309.56
2022-12-09T21:21:07.614Z,99313.34
2022-12-09T21:23:39.194Z,99309.69
2022-12-09T21:26:10.354Z,99309.09
2022-12-09T21:28:40.660Z,99308.75
2022-12-09T21:31:11.786Z,99319.84
2022-12-09T21:33:41.805Z,99323.84
2022-12-09T21:36:12.972Z,99325.28
2022-12-09T21:38:44.431Z,99311.41
2022-12-09T21:41:15.249Z,99307.31
2022-12-09T21:43:45.244Z,99300.06
2022-12-09T21:46:15.697Z,99293.81
2022-12-09T21:48:50.562Z,99287.75
2022-12-09T21:51:22.510Z,99284.38
2022-12-09T21:53:53.660Z,99292.47
2022-12-09T21:56:24.198Z,99288.00
2022-12-09T21:58:55.022Z,99293.31
2022-12-09T22:01:26.092Z,99288.13
2022-12-09T22:03:56.440Z,99290.28
2022-12-09T22:06:26.226Z,99281.03
2022-12-09T22:08:58.760Z,99282.94
2022-12-09T22:11:29.798Z,99281.03
2022-12-09T22:14:00.729Z,99276.28
2022-12-09T22:16:32.693Z,99276.41
2022-12-09T22:19:03.395Z,99279.53
2022-12-09T22:21:34.482Z,99278.69
2022-12-09T22:24:06.589Z,99279.78
2022-12-09T22:26:36.367Z,99281.03
2022-12-09T22:29:06.378Z,99274.00
2022-12-09T22:31:37.396Z,99263.59
2022-12-09T22:34:08.216Z,99258.78
2022-12-09T22:36:38.082Z,99259.03
2022-12-09T22:39:09.374Z,99262.66
2022-12-09T22:41:38.957Z,99271.13
2022-12-09T22:44:08.528Z,99265.81
2022-12-09T22:46:38.083Z,99262.31
2022-12-09T22:49:07.933Z,99263.41
2022-12-09T22:51:37.771Z,99270.53
2022-12-09T22:54:08.119Z,99272.94
2022-12-09T22:56:40.251Z,99267.00
2022-12-09T22:59:10.048Z,99266.56
2022-12-09T23:01:39.789Z,99254.94
2022-12-09T23:04:09.475Z,99265.22
2022-12-09T23:06:39.609Z,99259.53
2022-12-09T23:09:11.076Z,99261.38
2022-12-09T23:11:44.363Z,99256.53
2022-12-09T23:14:14.588Z,99249.41
2022-12-09T23:16:45.055Z,99246.78
2022-12-09T23:19:15.579Z,99248.44
2022-12-09T23:21:45.146Z,99236.28
2022-12-09T23:24:21.043Z,99222.38
2022-12-09T23:26:56.774Z,99221.56
2022-12-09T23:29:26.228Z,99223.47
2022-12-09T23:31:56.178Z,99219.38
2022-12-09T23:34:25.734Z,99213.47
2022-12-09T23:36:55.942Z,99229.03
2022-12-09T23:39:25.646Z,99226.25
2022-12-09T23:41:56.518Z,99225.41
2022-12-09T23:44:26.076Z,99224.34
2022-12-09T23:46:55.653Z,99219.84
2022-12-09T23:49:25.380Z,99210.56
2022-12-09T23:51:55.137Z,99217.69
2022-12-09T23:54:24.816Z,99207.91
2022-12-09T23:56:56.035Z,99220.09
2022-12-09T23:59:25.572Z,99219.97
